createdAt,value
2018-04-14T00:01:36.637Z,99.90
2018-04-14T00:04:02.630Z,99.90
2018-04-14T00:06:28.598Z,99.90
2018-04-14T00:08:55.297Z,99.90
2018-04-14T00:11:21.276Z,99.90
2018-04-14T00:13:47.213Z,99.90
2018-04-14T00:16:13.171Z,99.90
2018-04-14T00:18:39.134Z,99.90
2018-04-14T00:21:05.159Z,99.90
2018-04-14T00:23:31.166Z,99.90
2018-04-14T00:25:57.856Z,99.90
2018-04-14T00:28:23.832Z,99.90
2018-04-14T00:30:49.789Z,99.90
2018-04-14T00:33:16.493Z,99.90
2018-04-14T00:35:42.442Z,99.90
2018-04-14T00:38:08.393Z,99.90
2018-04-14T00:40:34.736Z,99.90
2018-04-14T00:43:00.705Z,99.90
2018-04-14T00:45:26.662Z,99.90
2018-04-14T00:47:52.922Z,99.90
2018-04-14T00:50:18.878Z,99.90
2018-04-14T00:52:44.822Z,99.90
2018-04-14T00:55:11.546Z,99.90
2018-04-14T00:57:37.547Z,99.90
2018-04-14T01:00:03.580Z,99.90
2018-04-14T01:02:29.571Z,99.90
2018-04-14T01:04:55.539Z,99.90
2018-04-14T01:07:21.502Z,99.90
2018-04-14T01:09:47.464Z,99.90
2018-04-14T01:12:13.421Z,99.90
2018-04-14T01:14:39.408Z,99.90
2018-04-14T01:17:05.409Z,99.90
2018-04-14T01:19:32.176Z,99.90
2018-04-14T01:21:58.187Z,99.90
2018-04-14T01:24:24.150Z,99.90
2018-04-14T01:26:50.105Z,99.90
2018-04-14T01:29:16.079Z,99.90
2018-04-14T01:31:42.025Z,99.90
2018-04-14T01:34:07.990Z,99.90
2018-04-14T01:36:34.042Z,99.90
2018-04-14T01:39:00.101Z,99.90
2018-04-14T01:41:26.090Z,99.90
2018-04-14T01:43:52.790Z,99.90
2018-04-14T01:46:18.745Z,99.90
2018-04-14T01:48:44.702Z,99.90
2018-04-14T01:51:11.405Z,99.90
2018-04-14T01:53:37.355Z,99.90
2018-04-14T01:56:04.129Z,99.90
2018-04-14T01:58:30.094Z,99.90
2018-04-14T02:00:56.060Z,99.90
2018-04-14T02:03:22.022Z,99.90
2018-04-14T02:05:47.985Z,99.90
2018-04-14T02:08:15.214Z,99.90
2018-04-14T02:10:41.166Z,99.90
2018-04-14T02:13:07.162Z,99.90
2018-04-14T02:15:33.183Z,99.90
2018-04-14T02:17:59.137Z,99.90
2018-04-14T02:20:25.103Z,99.90
2018-04-14T02:22:51.059Z,99.90
2018-04-14T02:25:18.190Z,99.90
2018-04-14T02:27:44.147Z,99.90
2018-04-14T02:30:10.116Z,99.90
2018-04-14T02:32:36.111Z,99.90
2018-04-14T02:35:02.099Z,99.90
2018-04-14T02:37:28.119Z,99.90
2018-04-14T02:39:54.102Z,99.90
2018-04-14T02:42:20.084Z,99.90
2018-04-14T02:44:46.788Z,99.90
2018-04-14T02:47:12.763Z,99.90
2018-04-14T02:49:38.760Z,99.90
2018-04-14T02:52:04.726Z,99.90
2018-04-14T02:54:31.627Z,99.90
2018-04-14T02:56:57.591Z,99.90
2018-04-14T02:59:23.550Z,99.90
2018-04-14T03:01:49.510Z,99.90
2018-04-14T03:04:15.474Z,99.90
2018-04-14T03:06:41.435Z,99.90
2018-04-14T03:09:07.464Z,99.90
2018-04-14T03:11:33.848Z,99.90
2018-04-14T03:14:00.556Z,99.90
2018-04-14T03:16:26.523Z,99.90
2018-04-14T03:18:52.534Z,99.90
2018-04-14T03:21:18.500Z,99.90
2018-04-14T03:23:45.195Z,99.90
2018-04-14T03:26:11.200Z,99.90
2018-04-14T03:28:37.902Z,99.90
2018-04-14T03:31:03.908Z,99.90
2018-04-14T03:33:30.295Z,99.90
2018-04-14T03:35:56.647Z,99.90
2018-04-14T03:38:22.815Z,99.90
2018-04-14T03:40:49.498Z,99.90
2018-04-14T03:43:15.470Z,99.90
2018-04-14T03:45:41.442Z,99.90
2018-04-14T03:48:07.455Z,99.90
2018-04-14T03:50:33.447Z,99.90
2018-04-14T03:52:59.419Z,99.90
2018-04-14T03:55:25.380Z,99.90
2018-04-14T03:57:52.090Z,99.90
2018-04-14T04:00:18.047Z,99.90
2018-04-14T04:02:44.014Z,99.90
2018-04-14T04:05:09.966Z,99.90
2018-04-14T04:07:35.943Z,99.90
2018-04-14T04:10:01.937Z,99.90
2018-04-14T04:12:27.911Z,99.90
2018-04-14T04:14:53.873Z,99.90
2018-04-14T04:17:20.582Z,99.90
2018-04-14T04:19:59.130Z,99.90
2018-04-14T04:22:37.478Z,99.90
2018-04-14T04:25:25.076Z,99.90
2018-04-14T04:27:51.027Z,99.90
2018-04-14T04:30:17.001Z,99.90
2018-04-14T04:32:43.715Z,99.90
2018-04-14T04:35:09.689Z,99.90
2018-04-14T04:37:36.427Z,99.90
2018-04-14T04:40:03.198Z,99.90
2018-04-14T04:42:29.224Z,99.90
2018-04-14T04:44:55.911Z,99.90
2018-04-14T04:47:21.887Z,99.90
2018-04-14T04:49:47.830Z,99.90
2018-04-14T04:52:13.792Z,99.90
2018-04-14T04:54:40.499Z,99.90
2018-04-14T04:57:06.474Z,99.90
2018-04-14T04:59:33.616Z,99.90
2018-04-14T05:01:59.583Z,99.90
2018-04-14T05:04:26.286Z,99.90
2018-04-14T05:06:52.263Z,99.90
2018-04-14T05:09:18.979Z,99.90
2018-04-14T05:11:45.115Z,99.90
2018-04-14T05:14:11.088Z,99.90
2018-04-14T05:16:37.940Z,99.60
2018-04-14T05:19:04.726Z,99.30
2018-04-14T05:21:30.699Z,99.30
2018-04-14T05:23:56.675Z,99.30
2018-04-14T05:26:23.379Z,99.20
2018-04-14T05:28:49.342Z,99.20
2018-04-14T05:31:15.304Z,99.40
2018-04-14T05:33:41.310Z,99.00
2018-04-14T05:36:07.294Z,98.60
2018-04-14T05:38:33.308Z,98.40
2018-04-14T05:40:59.302Z,98.00
2018-04-14T05:43:25.266Z,97.60
2018-04-14T05:45:51.954Z,97.20
2018-04-14T05:48:17.915Z,97.20
2018-04-14T05:50:43.866Z,96.70
2018-04-14T05:53:09.995Z,96.20
2018-04-14T05:55:35.990Z,96.40
2018-04-14T05:58:02.004Z,96.50
2018-04-14T06:00:28.721Z,96.80
2018-04-14T06:02:54.692Z,96.80
2018-04-14T06:05:21.423Z,97.00
2018-04-14T06:07:47.374Z,97.00
2018-04-14T06:10:14.070Z,95.80
2018-04-14T06:12:40.054Z,95.80
2018-04-14T06:15:06.071Z,95.30
2018-04-14T06:17:32.089Z,93.90
2018-04-14T06:19:58.063Z,94.00
2018-04-14T06:22:25.088Z,93.50
2018-04-14T06:24:51.055Z,93.50
2018-04-14T06:27:17.758Z,92.30
2018-04-14T06:29:43.715Z,92.30
2018-04-14T06:32:09.680Z,92.30
2018-04-14T06:34:36.483Z,92.10
2018-04-14T06:37:02.473Z,92.10
2018-04-14T06:39:29.476Z,91.30
2018-04-14T06:41:55.447Z,91.30
2018-04-14T06:44:21.397Z,91.50
2018-04-14T06:46:48.103Z,88.20
2018-04-14T06:49:14.082Z,88.20
2018-04-14T06:51:40.786Z,86.80
2018-04-14T06:54:06.802Z,86.00
2018-04-14T06:56:32.799Z,84.30
2018-04-14T06:58:58.756Z,81.60
2018-04-14T07:01:25.483Z,76.60
2018-04-14T07:03:51.436Z,76.50
2018-04-14T07:06:18.139Z,77.60
2018-04-14T07:08:44.083Z,77.50
2018-04-14T07:11:10.060Z,76.70
2018-04-14T07:13:36.862Z,75.40
2018-04-14T07:16:02.881Z,75.50
2018-04-14T07:18:28.843Z,77.00
2018-04-14T07:20:55.099Z,78.40
2018-04-14T07:23:21.051Z,78.40
2018-04-14T07:25:47.754Z,76.20
2018-04-14T07:28:13.718Z,75.60
2018-04-14T07:30:39.679Z,72.40
2018-04-14T07:33:05.707Z,71.10
2018-04-14T07:35:31.740Z,71.60
2018-04-14T07:37:57.703Z,71.30
2018-04-14T07:40:24.422Z,73.60
2018-04-14T07:42:50.378Z,73.60
2018-04-14T07:45:17.120Z,65.90
2018-04-14T07:47:43.082Z,65.80
2018-04-14T07:50:09.043Z,59.20
2018-04-14T07:52:35.052Z,54.60
2018-04-14T07:55:01.018Z,53.70
2018-04-14T07:57:26.989Z,52.20
2018-04-14T07:59:53.696Z,50.80
2018-04-14T08:02:19.982Z,50.70
2018-04-14T08:04:45.972Z,51.10
2018-04-14T08:07:12.664Z,51.10
2018-04-14T08:09:38.675Z,51.00
2018-04-14T08:12:05.092Z,52.20
2018-04-14T08:14:31.063Z,52.40
2018-04-14T08:16:57.064Z,50.60
2018-04-14T08:19:23.494Z,48.70
2018-04-14T08:21:50.229Z,43.40
2018-04-14T08:24:16.204Z,43.30
2018-04-14T08:26:42.297Z,41.00
2018-04-14T08:29:09.996Z,38.10
2018-04-14T08:31:36.851Z,37.50
2018-04-14T08:34:03.628Z,37.40
2018-04-14T08:36:29.882Z,37.20
2018-04-14T08:38:55.966Z,36.70
2018-04-14T08:41:22.018Z,36.10
2018-04-14T08:43:48.720Z,34.20
2018-04-14T08:46:14.683Z,34.10
2018-04-14T08:48:42.168Z,37.50
2018-04-14T08:51:08.187Z,37.40
2018-04-14T08:53:34.223Z,37.00
2018-04-14T08:56:00.251Z,40.10
2018-04-14T08:58:26.206Z,41.40
2018-04-14T09:00:52.163Z,41.00
2018-04-14T09:03:18.916Z,40.60
2018-04-14T09:05:45.615Z,40.20
2018-04-14T09:08:11.592Z,40.30
2018-04-14T09:10:38.607Z,40.20
2018-04-14T09:13:04.740Z,40.20
2018-04-14T09:15:30.712Z,41.50
2018-04-14T09:17:56.729Z,42.00
2018-04-14T09:20:22.703Z,44.10
2018-04-14T09:22:49.410Z,47.00
2018-04-14T09:25:15.578Z,47.00
2018-04-14T09:27:41.543Z,48.70
2018-04-14T09:30:07.614Z,49.80
2018-04-14T09:32:33.655Z,51.80
2018-04-14T09:34:59.625Z,54.20
2018-04-14T09:37:25.638Z,55.10
2018-04-14T09:39:51.698Z,57.30
2018-04-14T09:42:17.680Z,58.70
2018-04-14T09:44:43.651Z,58.70
2018-04-14T09:47:09.801Z,59.00
2018-04-14T09:49:35.796Z,60.00
2018-04-14T09:52:01.865Z,60.80
2018-04-14T09:54:27.867Z,62.20
2018-04-14T09:56:53.825Z,62.30
2018-04-14T09:59:19.793Z,65.20
2018-04-14T10:01:50.546Z,64.50
2018-04-14T10:04:17.275Z,65.70
2018-04-14T10:06:43.222Z,65.20
2018-04-14T10:09:09.219Z,65.60
2018-04-14T10:11:35.252Z,65.30
2018-04-14T10:14:02.427Z,66.30
2018-04-14T10:16:28.455Z,66.60
2018-04-14T10:18:54.422Z,67.50
2018-04-14T10:21:20.379Z,67.30
2018-04-14T10:23:47.090Z,68.50
2018-04-14T10:26:13.051Z,68.50
2018-04-14T10:28:39.024Z,67.80
2018-04-14T10:31:05.022Z,67.60
2018-04-14T10:33:30.996Z,68.70
2018-04-14T10:35:56.954Z,69.20
2018-04-14T10:38:22.965Z,69.60
2018-04-14T10:40:48.926Z,71.10
2018-04-14T10:43:14.886Z,70.40
2018-04-14T10:45:40.913Z,69.70
2018-04-14T10:48:07.827Z,69.50
2018-04-14T10:50:33.844Z,69.50
2018-04-14T10:52:59.947Z,69.00
2018-04-14T10:55:25.927Z,68.70
2018-04-14T10:57:52.652Z,69.00
2018-04-14T11:00:18.655Z,69.00
2018-04-14T11:02:44.618Z,68.60
2018-04-14T11:05:10.588Z,68.20
2018-04-14T11:07:36.597Z,67.60
2018-04-14T11:10:02.677Z,67.80
2018-04-14T11:12:28.638Z,67.80
2018-04-14T11:14:54.790Z,66.90
2018-04-14T11:17:20.749Z,66.10
2018-04-14T11:19:46.744Z,66.10
2018-04-14T11:22:12.730Z,68.00
2018-04-14T11:24:39.436Z,67.50
2018-04-14T11:27:05.451Z,67.50
2018-04-14T11:29:31.483Z,67.10
2018-04-14T11:31:57.452Z,67.40
2018-04-14T11:34:23.417Z,67.70
2018-04-14T11:36:49.407Z,68.70
2018-04-14T11:39:15.367Z,69.40
2018-04-14T11:41:41.329Z,67.90
2018-04-14T11:44:08.328Z,67.90
2018-04-14T11:46:34.344Z,67.50
2018-04-14T11:49:00.298Z,67.70
2018-04-14T11:51:26.289Z,68.40
2018-04-14T11:53:53.000Z,67.20
2018-04-14T11:56:18.964Z,66.60
2018-04-14T11:58:44.946Z,67.40
2018-04-14T12:01:10.906Z,67.10
2018-04-14T12:03:36.942Z,67.90
2018-04-14T12:06:03.231Z,67.70
2018-04-14T12:08:29.946Z,68.40
2018-04-14T12:10:55.940Z,68.40
2018-04-14T12:13:21.923Z,68.60
2018-04-14T12:15:47.939Z,68.70
2018-04-14T12:18:13.914Z,68.40
2018-04-14T12:20:39.964Z,67.80
2018-04-14T12:23:06.716Z,64.30
2018-04-14T12:25:32.753Z,64.30
2018-04-14T12:27:59.500Z,65.20
2018-04-14T12:30:25.462Z,65.20
2018-04-14T12:32:51.432Z,65.20
2018-04-14T12:35:17.602Z,64.70
2018-04-14T12:37:43.572Z,65.60
2018-04-14T12:40:09.563Z,65.20
2018-04-14T12:42:35.614Z,64.70
2018-04-14T12:45:01.645Z,64.50
2018-04-14T12:47:28.527Z,61.80
2018-04-14T12:49:55.242Z,61.70
2018-04-14T12:52:21.205Z,61.70
2018-04-14T12:54:47.904Z,59.40
2018-04-14T12:57:13.886Z,59.40
2018-04-14T12:59:39.976Z,60.20
2018-04-14T13:02:05.962Z,59.90
2018-04-14T13:04:32.200Z,59.40
2018-04-14T13:06:58.172Z,60.00
2018-04-14T13:09:24.126Z,58.80
2018-04-14T13:11:50.111Z,58.80
2018-04-14T13:14:16.083Z,58.80
2018-04-14T13:16:42.055Z,60.50
2018-04-14T13:19:08.569Z,59.50
2018-04-14T13:21:34.511Z,59.40
2018-04-14T13:24:00.473Z,59.10
2018-04-14T13:26:26.614Z,59.50
2018-04-14T13:28:52.616Z,60.00
2018-04-14T13:31:18.575Z,59.00
2018-04-14T13:33:44.540Z,58.30
2018-04-14T13:36:10.495Z,58.20
2018-04-14T13:38:37.240Z,57.30
2018-04-14T13:41:04.120Z,57.90
2018-04-14T13:43:30.087Z,58.00
2018-04-14T13:45:56.053Z,56.60
2018-04-14T13:48:22.091Z,56.60
2018-04-14T13:50:48.050Z,56.60
2018-04-14T13:53:14.767Z,57.20
2018-04-14T13:55:40.760Z,57.10
2018-04-14T13:58:06.732Z,57.90
2018-04-14T14:00:32.780Z,57.20
2018-04-14T14:02:58.759Z,56.80
2018-04-14T14:05:24.705Z,56.40
2018-04-14T14:07:50.660Z,55.90
2018-04-14T14:10:16.806Z,55.80
2018-04-14T14:12:42.763Z,55.60
2018-04-14T14:15:08.723Z,55.70
2018-04-14T14:17:34.811Z,55.30
2018-04-14T14:20:00.770Z,55.40
2018-04-14T14:22:26.731Z,54.20
2018-04-14T14:24:53.451Z,54.30
2018-04-14T14:27:19.404Z,54.30
2018-04-14T14:29:45.352Z,54.60
2018-04-14T14:32:12.072Z,55.10
2018-04-14T14:34:38.082Z,55.00
2018-04-14T14:37:04.083Z,54.70
2018-04-14T14:39:30.084Z,54.10
2018-04-14T14:41:56.045Z,53.20
2018-04-14T14:44:22.742Z,52.10
2018-04-14T14:46:48.757Z,52.00
2018-04-14T14:49:14.722Z,51.00
2018-04-14T14:51:40.685Z,50.40
2018-04-14T14:54:07.901Z,50.80
2018-04-14T14:56:33.894Z,50.70
2018-04-14T14:59:00.600Z,49.90
2018-04-14T15:01:26.606Z,49.80
2018-04-14T15:03:52.579Z,48.70
2018-04-14T15:06:18.576Z,48.80
2018-04-14T15:08:44.602Z,48.30
2018-04-14T15:11:10.587Z,48.30
2018-04-14T15:13:36.629Z,47.70
2018-04-14T15:16:02.820Z,48.00
2018-04-14T15:18:28.798Z,48.20
2018-04-14T15:20:54.867Z,48.60
2018-04-14T15:23:21.608Z,48.70
2018-04-14T15:25:47.596Z,48.60
2018-04-14T15:28:13.580Z,49.20
2018-04-14T15:30:39.585Z,48.90
2018-04-14T15:33:05.616Z,49.00
2018-04-14T15:35:31.594Z,49.00
2018-04-14T15:37:58.341Z,50.00
2018-04-14T15:40:24.309Z,50.00
2018-04-14T15:42:51.012Z,51.00
2018-04-14T15:45:17.048Z,51.00
2018-04-14T15:47:43.038Z,51.10
2018-04-14T15:50:09.027Z,51.70
2018-04-14T15:52:35.202Z,52.50
2018-04-14T15:55:01.179Z,52.70
2018-04-14T15:57:27.157Z,52.50
2018-04-14T15:59:53.130Z,52.20
2018-04-14T16:02:19.115Z,51.60
2018-04-14T16:04:45.063Z,51.20
2018-04-14T16:07:12.728Z,51.80
2018-04-14T16:09:38.791Z,51.90
2018-04-14T16:12:05.570Z,53.10
2018-04-14T16:14:31.546Z,53.10
2018-04-14T16:16:57.523Z,53.40
2018-04-14T16:19:24.236Z,53.50
2018-04-14T16:21:50.323Z,53.50
2018-04-14T16:24:16.282Z,53.50
2018-04-14T16:26:42.250Z,54.10
2018-04-14T16:29:08.239Z,54.00
2018-04-14T16:31:34.225Z,54.00
2018-04-14T16:34:00.183Z,54.00
2018-04-14T16:36:26.895Z,52.90
2018-04-14T16:38:52.865Z,52.90
2018-04-14T16:41:19.554Z,51.70
2018-04-14T16:43:45.572Z,51.70
2018-04-14T16:46:11.533Z,51.60
2018-04-14T16:48:37.518Z,52.30
2018-04-14T16:51:04.458Z,52.80
2018-04-14T16:56:21.062Z,52.80
2018-04-14T16:58:47.259Z,53.10
2018-04-14T17:01:13.256Z,53.30
2018-04-14T17:03:39.959Z,53.10
2018-04-14T17:06:06.739Z,54.20
2018-04-14T17:08:32.865Z,53.90
2018-04-14T17:10:58.879Z,54.40
2018-04-14T17:13:24.864Z,54.40
2018-04-14T17:15:50.828Z,54.50
2018-04-14T17:18:16.943Z,55.00
2018-04-14T17:20:42.910Z,55.10
2018-04-14T17:23:08.920Z,55.10
2018-04-14T17:25:34.989Z,55.80
2018-04-14T17:28:01.744Z,55.80
2018-04-14T17:30:27.750Z,55.70
2018-04-14T17:32:53.746Z,56.20
2018-04-14T17:35:20.457Z,56.50
2018-04-14T17:37:46.420Z,56.50
2018-04-14T17:40:13.872Z,57.30
2018-04-14T17:42:39.864Z,57.30
2018-04-14T17:45:05.871Z,58.00
2018-04-14T17:47:31.913Z,58.50
2018-04-14T17:49:57.888Z,58.90
2018-04-14T17:52:23.861Z,59.00
2018-04-14T17:54:49.830Z,58.90
2018-04-14T17:57:15.803Z,59.60
2018-04-14T17:59:41.792Z,60.00
2018-04-14T18:02:07.887Z,60.10
2018-04-14T18:04:33.926Z,60.30
2018-04-14T18:06:59.939Z,60.70
2018-04-14T18:09:26.207Z,61.20
2018-04-14T18:11:52.168Z,60.40
2018-04-14T18:14:18.859Z,60.60
2018-04-14T18:16:45.027Z,60.50
2018-04-14T18:19:11.000Z,61.00
2018-04-14T18:21:37.706Z,63.00
2018-04-14T18:24:03.739Z,62.90
2018-04-14T18:26:29.730Z,63.10
2018-04-14T18:28:55.712Z,63.80
2018-04-14T18:31:21.744Z,65.30
2018-04-14T18:33:48.408Z,66.70
2018-04-14T18:36:14.374Z,67.30
2018-04-14T18:38:41.095Z,68.40
2018-04-14T18:41:07.085Z,68.30
2018-04-14T18:43:33.109Z,68.40
2018-04-14T18:45:59.136Z,69.30
2018-04-14T18:48:25.851Z,71.00
2018-04-14T18:50:51.813Z,71.00
2018-04-14T18:53:18.589Z,72.40
2018-04-14T18:55:44.548Z,71.80
2018-04-14T18:58:10.518Z,72.30
2018-04-14T19:00:36.526Z,72.30
2018-04-14T19:03:02.523Z,73.10
2018-04-14T19:05:29.244Z,73.80
2018-04-14T19:07:55.219Z,73.80
2018-04-14T19:10:21.236Z,74.60
2018-04-14T19:12:47.158Z,75.50
2018-04-14T19:15:13.152Z,76.50
2018-04-14T19:17:39.150Z,76.90
2018-04-14T19:20:05.922Z,77.80
2018-04-14T19:22:31.960Z,77.60
2018-04-14T19:24:57.933Z,79.10
2018-04-14T19:27:23.903Z,79.30
2018-04-14T19:29:50.652Z,79.90
2018-04-14T19:32:16.677Z,79.90
2018-04-14T19:34:42.636Z,80.60
2018-04-14T19:37:09.364Z,80.20
2018-04-14T19:39:35.378Z,80.10
2018-04-14T19:42:01.344Z,81.00
2018-04-14T19:44:28.493Z,82.50
2018-04-14T19:46:54.504Z,82.30
2018-04-14T19:49:20.471Z,82.30
2018-04-14T19:51:46.503Z,82.20
2018-04-14T19:54:12.894Z,82.80
2018-04-14T19:56:39.928Z,82.70
2018-04-14T19:59:06.007Z,82.70
2018-04-14T20:01:32.283Z,82.80
2018-04-14T20:03:58.280Z,83.10
2018-04-14T20:06:24.283Z,83.10
2018-04-14T20:08:50.987Z,84.00
2018-04-14T20:11:24.044Z,84.00
2018-04-14T20:13:50.738Z,84.70
2018-04-14T20:16:16.695Z,84.70
2018-04-14T20:18:42.671Z,84.90
2018-04-14T20:21:09.513Z,85.40
2018-04-14T20:23:36.264Z,85.40
2018-04-14T20:26:03.061Z,85.20
2018-04-14T20:28:29.037Z,85.20
2018-04-14T20:30:55.012Z,85.80
2018-04-14T20:33:21.033Z,85.60
2018-04-14T20:35:47.769Z,84.40
2018-04-14T20:38:13.735Z,84.30
2018-04-14T20:40:40.534Z,84.40
2018-04-14T20:43:06.567Z,84.40
2018-04-14T20:45:32.601Z,85.00
2018-04-14T20:47:58.616Z,85.20
2018-04-14T20:50:24.588Z,86.10
2018-04-14T20:52:50.571Z,86.20
2018-04-14T20:55:16.579Z,86.10
2018-04-14T20:57:42.542Z,85.90
2018-04-14T21:00:08.518Z,86.00
2018-04-14T21:02:34.583Z,86.40
2018-04-14T21:05:00.547Z,86.00
2018-04-14T21:07:26.521Z,85.80
2018-04-14T21:09:52.532Z,85.50
2018-04-14T21:12:18.508Z,85.90
2018-04-14T21:14:44.480Z,85.50
2018-04-14T21:17:11.227Z,85.60
2018-04-14T21:19:37.954Z,85.90
2018-04-14T21:22:03.937Z,85.90
2018-04-14T21:24:29.986Z,85.10
2018-04-14T21:26:55.964Z,85.10
2018-04-14T21:29:21.922Z,85.40
2018-04-14T21:31:48.842Z,85.20
2018-04-14T21:34:14.800Z,85.20
2018-04-14T21:36:40.838Z,85.80
2018-04-14T21:39:06.846Z,84.90
2018-04-14T21:41:32.865Z,84.60
2018-04-14T21:43:58.840Z,85.00
2018-04-14T21:46:24.832Z,84.60
2018-04-14T21:48:50.812Z,85.20
2018-04-14T21:51:16.795Z,85.90
2018-04-14T21:53:42.816Z,86.10
2018-04-14T21:56:08.807Z,86.60
2018-04-14T21:58:34.849Z,86.70
2018-04-14T22:01:00.990Z,85.80
2018-04-14T22:03:26.960Z,85.60
2018-04-14T22:05:53.663Z,86.60
2018-04-14T22:08:19.656Z,86.50
2018-04-14T22:10:45.631Z,87.20
2018-04-14T22:13:11.589Z,87.30
2018-04-14T22:15:37.640Z,87.10
2018-04-14T22:18:03.687Z,87.10
2018-04-14T22:20:29.667Z,86.60
2018-04-14T22:22:55.660Z,86.60
2018-04-14T22:25:22.389Z,85.50
2018-04-14T22:27:48.353Z,85.50
2018-04-14T22:30:15.089Z,84.90
2018-04-14T22:32:41.043Z,84.80
2018-04-14T22:35:07.786Z,83.00
2018-04-14T22:37:34.540Z,82.50
2018-04-14T22:40:01.248Z,82.20
2018-04-14T22:42:27.211Z,82.10
2018-04-14T22:44:53.184Z,82.20
2018-04-14T22:47:19.168Z,82.50
2018-04-14T22:49:45.155Z,82.50
2018-04-14T22:52:11.348Z,82.30
2018-04-14T22:54:37.694Z,82.50
2018-04-14T22:57:03.804Z,83.10
2018-04-14T22:59:29.816Z,82.50
2018-04-14T23:01:55.793Z,82.50
2018-04-14T23:04:21.766Z,82.20
2018-04-14T23:06:48.483Z,82.00
2018-04-14T23:09:14.464Z,82.00
2018-04-14T23:11:40.455Z,81.30
2018-04-14T23:14:07.127Z,81.40
2018-04-14T23:16:33.105Z,82.50
2018-04-14T23:18:59.075Z,82.90
2018-04-14T23:21:25.213Z,81.80
2018-04-14T23:23:51.176Z,82.50
2018-04-14T23:26:17.892Z,82.00
2018-04-14T23:28:44.049Z,81.90
2018-04-14T23:31:10.020Z,82.00
2018-04-14T23:33:36.007Z,82.40
2018-04-14T23:36:02.170Z,82.70
2018-04-14T23:38:28.167Z,83.20
2018-04-14T23:40:54.123Z,83.10
2018-04-14T23:43:20.246Z,82.30
2018-04-14T23:45:46.198Z,81.90
2018-04-14T23:48:12.154Z,81.90
2018-04-14T23:50:38.292Z,81.70
2018-04-14T23:53:04.271Z,81.80
2018-04-14T23:55:30.231Z,82.90
2018-04-14T23:57:56.247Z,83.10
